createdAt,value
2022-11-19T00:02:32.839Z,36.5
2022-11-19T00:08:10.479Z,36.4
2022-11-19T00:13:54.045Z,36.4
2022-11-19T00:19:00.825Z,36.3
2022-11-19T00:24:38.996Z,36.3
2022-11-19T00:30:15.461Z,36.3
2022-11-19T00:36:09.475Z,36.2
2022-11-19T00:41:16.935Z,36.2
2022-11-19T00:46:55.209Z,36.1
2022-11-19T00:52:33.365Z,36.1
2022-11-19T00:57:55.224Z,36
2022-11-19T01:03:33.522Z,36
2022-11-19T01:08:56.495Z,35.9
2022-11-19T01:14:33.861Z,35.9
2022-11-19T01:20:11.481Z,35.9
2022-11-19T01:25:49.997Z,35.8
2022-11-19T01:31:16.266Z,35.8
2022-11-19T01:36:38.531Z,35.8
2022-11-19T01:42:16.359Z,35.8
2022-11-19T01:47:38.179Z,35.7
2022-11-19T01:53:16.041Z,35.6
2022-11-19T01:58:54.050Z,35.6
2022-11-19T02:04:32.190Z,35.7
2022-11-19T02:09:55.022Z,36.1
2022-11-19T02:15:32.546Z,36.6
2022-11-19T02:21:09.571Z,36.9
2022-11-19T02:26:52.264Z,37.3
2022-11-19T02:32:13.951Z,37.4
2022-11-19T02:37:50.809Z,37.6
2022-11-19T02:48:36.169Z,37.9
2022-11-19T02:54:13.198Z,38.1
2022-11-19T02:59:35.622Z,38.1
2022-11-19T03:05:14.438Z,38.3
2022-11-19T03:10:35.867Z,38.2
2022-11-19T03:16:13.574Z,38.3
2022-11-19T03:21:35.330Z,38.4
2022-11-19T03:26:57.094Z,38.4
2022-11-19T03:32:19.277Z,38.4
2022-11-19T03:37:57.111Z,38.6
2022-11-19T03:43:35.368Z,38.5
2022-11-19T03:49:12.529Z,38.4
2022-11-19T03:54:52.156Z,38.4
2022-11-19T04:00:35.247Z,38.4
2022-11-19T04:06:13.012Z,38.4
2022-11-19T04:17:27.921Z,38.3
2022-11-19T04:22:34.598Z,38.3
2022-11-19T04:27:57.124Z,38.3
2022-11-19T04:33:19.287Z,38.3
2022-11-19T04:38:40.875Z,38.2
2022-11-19T04:44:03.198Z,38.1
2022-11-19T04:49:25.588Z,38.1
2022-11-19T04:55:09.302Z,38
2022-11-19T05:00:48.497Z,37.9
2022-11-19T05:06:10.810Z,37.9
2022-11-19T05:11:33.992Z,37.9
2022-11-19T05:17:16.250Z,37.9
2022-11-19T05:22:53.538Z,37.8
2022-11-19T05:28:38.365Z,37.8
2022-11-19T05:34:21.977Z,37.7
2022-11-19T05:39:59.497Z,37.6
2022-11-19T05:45:36.871Z,37.6
2022-11-19T05:51:15.411Z,37.6
2022-11-19T05:56:53.374Z,37.5
2022-11-19T06:02:31.949Z,37.4
2022-11-19T06:08:10.168Z,37.4
2022-11-19T06:13:51.659Z,37.3
2022-11-19T06:19:29.572Z,36.9
2022-11-19T06:24:53.941Z,36.7
2022-11-19T06:30:32.142Z,36.5
2022-11-19T06:36:10.088Z,36.4
2022-11-19T06:41:55.027Z,36.3
2022-11-19T06:47:37.959Z,36.2
2022-11-19T06:53:17.134Z,36.1
2022-11-19T06:58:57.181Z,36.1
2022-11-19T07:04:35.217Z,36.1
2022-11-19T07:10:15.538Z,42.8
2022-11-19T07:15:54.322Z,53.4
2022-11-19T07:21:17.107Z,50.6
2022-11-19T07:26:57.033Z,48
2022-11-19T07:32:35.078Z,54.6
2022-11-19T07:38:13.795Z,54.8
2022-11-19T07:43:58.099Z,54.7
2022-11-19T07:49:41.422Z,54.8
2022-11-19T07:55:09.005Z,55
2022-11-19T08:00:38.116Z,55.9
2022-11-19T08:06:21.496Z,56.6
2022-11-19T08:11:59.112Z,57.4
2022-11-19T08:17:37.101Z,57.9
2022-11-19T08:23:19.795Z,58.3
2022-11-19T08:28:57.616Z,58.7
2022-11-19T08:34:38.903Z,59.3
2022-11-19T08:40:18.068Z,59.9
2022-11-19T08:45:55.830Z,60.3
2022-11-19T08:51:33.612Z,60.5
2022-11-19T08:57:11.619Z,61.2
2022-11-19T09:02:52.985Z,61.7
2022-11-19T09:08:37.496Z,62.2
2022-11-19T09:14:00.052Z,62.3
2022-11-19T09:19:42.604Z,62.9
2022-11-19T09:25:20.010Z,63.4
2022-11-19T09:31:03.483Z,63.9
2022-11-19T09:36:41.288Z,64.3
2022-11-19T09:42:19.290Z,64.6
2022-11-19T09:48:03.484Z,65
2022-11-19T09:53:40.874Z,64.7
2022-11-19T09:59:18.903Z,64.8
2022-11-19T10:04:41.922Z,64.6
2022-11-19T10:10:25.652Z,65.1
2022-11-19T10:15:53.677Z,65.3
2022-11-19T10:21:31.583Z,65.6
2022-11-19T10:27:10.877Z,66.3
2022-11-19T10:32:48.671Z,65.7
2022-11-19T10:38:26.958Z,66.4
2022-11-19T10:44:13.237Z,66.5
2022-11-19T10:49:51.466Z,66.4
2022-11-19T10:55:32.680Z,66.1
2022-11-19T11:01:00.193Z,65.7
2022-11-19T11:06:25.235Z,64.9
2022-11-19T11:12:05.104Z,64.3
2022-11-19T11:17:44.081Z,64.6
2022-11-19T11:23:22.191Z,65.6
2022-11-19T11:29:04.435Z,66.4
2022-11-19T11:34:47.550Z,66.8
2022-11-19T11:40:14.973Z,66.2
2022-11-19T11:45:57.437Z,65.3
2022-11-19T11:51:42.045Z,64.6
2022-11-19T11:57:04.485Z,63.6
2022-11-19T12:02:11.270Z,61.6
2022-11-19T12:07:47.675Z,58.6
2022-11-19T12:13:31.315Z,55.4
2022-11-19T12:19:14.581Z,53.3
2022-11-19T12:24:37.606Z,51.8
2022-11-19T12:30:14.465Z,50.6
2022-11-19T12:35:52.200Z,49.5
2022-11-19T12:41:31.755Z,48.6
2022-11-19T12:47:09.383Z,47.8
2022-11-19T12:52:49.087Z,47.1
2022-11-19T12:58:32.893Z,46.6
2022-11-19T13:04:10.809Z,45.9
2022-11-19T13:09:37.463Z,45.4
2022-11-19T13:14:44.259Z,44.7
2022-11-19T13:20:22.157Z,44.1
2022-11-19T13:25:59.921Z,43.6
2022-11-19T13:31:37.838Z,43.1
2022-11-19T13:37:16.274Z,42.6
2022-11-19T13:43:17.488Z,41.6
2022-11-19T13:49:04.555Z,40.8
2022-11-19T13:54:46.504Z,40.7
2022-11-19T14:00:24.266Z,40.4
2022-11-19T14:06:01.852Z,40.2
2022-11-19T14:11:44.532Z,39.9
2022-11-19T14:17:07.128Z,39.7
2022-11-19T14:22:18.690Z,39.6
2022-11-19T14:27:41.811Z,39.4
2022-11-19T14:33:20.288Z,39.1
2022-11-19T14:38:58.500Z,38.9
2022-11-19T14:44:40.707Z,38.6
2022-11-19T14:50:04.296Z,38.4
2022-11-19T14:55:42.615Z,38.3
2022-11-19T15:01:21.160Z,38.1
2022-11-19T15:06:58.827Z,38
2022-11-19T15:12:42.796Z,37.9
2022-11-19T15:18:04.875Z,37.8
2022-11-19T15:23:26.459Z,37.7
2022-11-19T15:28:55.386Z,37.5
2022-11-19T15:34:19.541Z,37.4
2022-11-19T15:40:17.966Z,37.3
2022-11-19T15:45:40.541Z,37.2
2022-11-19T15:50:47.247Z,37.1
2022-11-19T15:56:15.880Z,37
2022-11-19T16:01:39.103Z,36.9
2022-11-19T16:07:02.193Z,36.8
2022-11-19T16:12:26.426Z,36.7
2022-11-19T16:17:54.764Z,36.6
2022-11-19T16:23:17.863Z,36.4
2022-11-19T16:28:59.936Z,35.8
2022-11-19T16:34:38.894Z,34
2022-11-19T16:40:23.015Z,32.4
2022-11-19T16:45:46.387Z,31.1
2022-11-19T16:51:23.885Z,30.2
2022-11-19T16:56:50.035Z,29.5
2022-11-19T17:02:34.002Z,28.9
2022-11-19T17:08:12.140Z,28.3
2022-11-19T17:13:33.601Z,27.9
2022-11-19T17:19:18.481Z,27.6
2022-11-19T17:25:01.040Z,27.3
2022-11-19T17:30:22.996Z,27
2022-11-19T17:36:05.537Z,26.8
2022-11-19T17:41:27.992Z,26.5
2022-11-19T17:46:51.074Z,26.3
2022-11-19T17:52:10.184Z,26.1
2022-11-19T17:57:47.782Z,26
2022-11-19T18:03:27.702Z,25.8
2022-11-19T18:09:06.879Z,25.8
2022-11-19T18:19:23.178Z,25.6
2022-11-19T18:25:02.864Z,25.4
2022-11-19T18:30:45.579Z,25.4
2022-11-19T18:36:09.334Z,25.4
2022-11-19T18:41:33.841Z,25.3
2022-11-19T18:47:18.973Z,25.3
2022-11-19T18:52:59.963Z,25.2
2022-11-19T18:58:39.578Z,25.2
2022-11-19T19:03:54.582Z,25.2
2022-11-19T19:09:25.700Z,25.1
2022-11-19T19:14:49.378Z,25.1
2022-11-19T19:20:32.861Z,25.1
2022-11-19T19:26:04.276Z,25.1
2022-11-19T19:31:48.229Z,25.1
2022-11-19T19:37:12.504Z,25.1
2022-11-19T19:42:57.609Z,25.1
2022-11-19T19:48:37.427Z,25
2022-11-19T19:54:17.133Z,25
2022-11-19T19:59:57.548Z,25
2022-11-19T20:05:22.147Z,25
2022-11-19T20:11:05.408Z,25.1
2022-11-19T20:16:34.402Z,25
2022-11-19T20:22:13.365Z,25.1
2022-11-19T20:27:53.880Z,25.1
2022-11-19T20:33:33.773Z,25
2022-11-19T20:38:56.253Z,25
2022-11-19T20:44:40.995Z,25
2022-11-19T20:50:22.902Z,25
2022-11-19T21:01:47.645Z,25
2022-11-19T21:07:25.936Z,25
2022-11-19T21:12:53.768Z,25.1
2022-11-19T21:18:16.008Z,25.1
2022-11-19T21:23:57.673Z,25.1
2022-11-19T21:29:40.699Z,25.1
2022-11-19T21:35:19.323Z,25.1
2022-11-19T21:40:59.645Z,25.1
2022-11-19T21:46:38.298Z,25.1
2022-11-19T21:52:16.384Z,25.1
2022-11-19T21:57:59.613Z,25.1
2022-11-19T22:03:37.244Z,25.1
2022-11-19T22:09:15.457Z,25.1
2022-11-19T22:14:43.670Z,25.1
2022-11-19T22:20:06.119Z,25.1
2022-11-19T22:25:44.435Z,25.1
2022-11-19T22:31:28.252Z,25.1
2022-11-19T22:37:12.451Z,25.1
2022-11-19T22:42:34.553Z,25.1
2022-11-19T22:47:26.078Z,25.1
2022-11-19T22:53:04.136Z,25.1
2022-11-19T22:58:11.571Z,25.1
2022-11-19T23:03:34.948Z,25.1
2022-11-19T23:09:17.831Z,24.9
2022-11-19T23:14:40.746Z,24.8
2022-11-19T23:20:21.293Z,24.6
2022-11-19T23:25:59.560Z,24.5
2022-11-19T23:31:37.102Z,24.4
2022-11-19T23:37:21.148Z,24.3
2022-11-19T23:42:47.970Z,24.3
2022-11-19T23:48:27.204Z,24.2
2022-11-19T23:54:05.205Z,24.2
2022-11-19T23:59:44.411Z,24.1
